| time (UTC) | temp C | wind direction | speed KPH | gust KPH | rain 1hr cm | rain 24hr cm | rain mn cm | humidity % | barometer mb |
| 20260508024006 | 20 | 15 | 1.6 | 4.8 | 0.00 | 0.00 | 0.00 | 55 | 1016.3 |
| 20260508023008 | 20 | 68 | 1.6 | 4.8 | 0.00 | 0.00 | 0.00 | 55 | 1016.4 |
| 20260508022008 | 20 | 309 | 0.0 | 3.2 | 0.00 | 0.00 | 0.00 | 53 | 1016.3 |
| 20260508021007 | 20 | 323 | 1.6 | 3.2 | 0.00 | 0.00 | 0.00 | 52 | 1016.4 |
| 20260508020008 | 21 | 353 | 3.2 | 8.0 | 0.00 | 0.00 | 0.00 | 51 | 1016.4 |
| 20260508015010 | 22 | 345 | 3.2 | 4.8 | 0.00 | 0.00 | 0.00 | 51 | 1016.3 |
| 20260508014009 | 23 | 0.0 | 1.6 | 0.00 | 0.00 | 0.00 | 49 | 1016.5 | |
| 20260508013006 | 23 | 277 | 1.6 | 3.2 | 0.00 | 0.00 | 0.00 | 50 | 1016.6 |
| 20260508012009 | 23 | 340 | 1.6 | 3.2 | 0.00 | 0.00 | 0.00 | 50 | 1016.7 |
| 20260508011007 | 23 | 338 | 1.6 | 4.8 | 0.00 | 0.00 | 0.00 | 47 | 1016.7 |
| 20260508010014 | 23 | 250 | 1.6 | 3.2 | 0.00 | 0.00 | 0.00 | 48 | 1016.7 |
| 20260508005006 | 22 | 241 | 1.6 | 3.2 | 0.00 | 0.00 | 0.00 | 51 | 1016.8 |
| 20260508004007 | 22 | 239 | 3.2 | 4.8 | 0.00 | 0.00 | 0.00 | 49 | 1016.9 |
| 20260508003007 | 23 | 196 | 3.2 | 6.4 | 0.00 | 0.00 | 0.00 | 47 | 1017.0 |
| 20260508002007 | 24 | 220 | 3.2 | 6.4 | 0.00 | 0.00 | 0.00 | 46 | 1017.1 |
| 20260508001007 | 24 | 0.0 | 0.0 | 0.00 | 0.00 | 0.00 | 48 | 1017.1 | |
| 20260508000006 | 23 | 358 | 3.2 | 4.8 | 0.00 | 0.00 | 0.00 | 46 | 1017.2 |
| 20260507235007 | 23 | 272 | 1.6 | 3.2 | 0.00 | 0.00 | 0.00 | 48 | 1017.2 |
| 20260507234009 | 23 | 298 | 3.2 | 4.8 | 0.00 | 0.00 | 0.00 | 48 | 1017.4 |
| 20260507233007 | 23 | 337 | 3.2 | 4.8 | 0.00 | 0.00 | 0.00 | 47 | 1017.5 |
| 20260507232008 | 23 | 13 | 3.2 | 4.8 | 0.00 | 0.00 | 0.00 | 48 | 1017.7 |
| 20260507231012 | 23 | 259 | 3.2 | 4.8 | 0.00 | 0.00 | 0.00 | 45 | 1017.8 |
| 20260507230006 | 23 | 325 | 3.2 | 3.2 | 0.00 | 0.00 | 0.00 | 49 | 1018.0 |
| 20260507225007 | 23 | 254 | 3.2 | 4.8 | 0.00 | 0.00 | 0.00 | 50 | 1018.2 |
| 20260507224009 | 23 | 245 | 3.2 | 4.8 | 0.00 | 0.00 | 0.00 | 48 | 1018.3 |
| 20260507223006 | 22 | 313 | 3.2 | 4.8 | 0.00 | 0.00 | 0.00 | 50 | 1018.4 |
| 20260507222007 | 22 | 216 | 3.2 | 6.4 | 0.00 | 0.00 | 0.00 | 51 | 1018.6 |
| 20260507221008 | 22 | 250 | 3.2 | 4.8 | 0.00 | 0.00 | 0.00 | 51 | 1018.8 |
| 20260507220008 | 22 | 314 | 3.2 | 4.8 | 0.00 | 0.00 | 0.00 | 53 | 1018.9 |
| 20260507215011 | 22 | 236 | 3.2 | 4.8 | 0.00 | 0.00 | 0.00 | 52 | 1019.0 |
| 20260507214008 | 22 | 33 | 3.2 | 4.8 | 0.00 | 0.00 | 0.00 | 52 | 1019.0 |
| 20260507213009 | 22 | 266 | 3.2 | 4.8 | 0.00 | 0.00 | 0.00 | 50 | 1019.2 |
| 20260507212008 | 22 | 251 | 3.2 | 4.8 | 0.00 | 0.00 | 0.00 | 53 | 1019.3 |
| 20260507211009 | 21 | 228 | 3.2 | 6.4 | 0.00 | 0.00 | 0.00 | 53 | 1019.3 |
| 20260507210006 | 21 | 281 | 3.2 | 8.0 | 0.00 | 0.00 | 0.00 | 52 | 1019.5 |
| 20260507205007 | 20 | 212 | 3.2 | 6.4 | 0.00 | 0.00 | 0.00 | 52 | 1019.7 |
| 20260507204007 | 20 | 252 | 3.2 | 4.8 | 0.00 | 0.00 | 0.00 | 55 | 1019.8 |
| 20260507203007 | 20 | 339 | 3.2 | 4.8 | 0.00 | 0.00 | 0.00 | 56 | 1019.9 |
| 20260507202008 | 20 | 268 | 4.8 | 8.0 | 0.00 | 0.00 | 0.00 | 53 | 1020.1 |
| 20260507201007 | 19 | 236 | 3.2 | 6.4 | 0.00 | 0.00 | 0.00 | 54 | 1020.2 |
| 20260507200009 | 18 | 229 | 4.8 | 6.4 | 0.00 | 0.00 | 0.00 | 55 | 1020.4 |
| 20260507195007 | 19 | 326 | 1.6 | 3.2 | 0.00 | 0.00 | 0.00 | 59 | 1020.4 |
| 20260507194009 | 18 | 261 | 4.8 | 6.4 | 0.00 | 0.00 | 0.00 | 58 | 1020.5 |
| 20260507193006 | 18 | 242 | 3.2 | 8.0 | 0.00 | 0.00 | 0.00 | 60 | 1020.5 |
| 20260507192006 | 18 | 269 | 4.8 | 6.4 | 0.00 | 0.00 | 0.00 | 61 | 1020.8 |
| 20260507191008 | 17 | 145 | 3.2 | 6.4 | 0.00 | 0.00 | 0.00 | 63 | 1020.8 |
| 20260507190007 | 17 | 227 | 3.2 | 9.7 | 0.00 | 0.00 | 0.00 | 61 | 1020.9 |
| 20260507185010 | 16 | 281 | 3.2 | 4.8 | 0.00 | 0.00 | 0.00 | 64 | 1021.0 |
| 20260507184007 | 17 | 198 | 3.2 | 6.4 | 0.00 | 0.00 | 0.00 | 66 | 1021.1 |
| 20260507183008 | 17 | 66 | 3.2 | 6.4 | 0.00 | 0.00 | 0.00 | 67 | 1021.1 |
| 20260507182008 | 15 | 248 | 0.0 | 3.2 | 0.00 | 0.00 | 0.00 | 70 | 1021.2 |
| 20260507181006 | 16 | 113 | 1.6 | 4.8 | 0.00 | 0.00 | 0.00 | 68 | 1021.3 |
| 20260507180007 | 16 | 284 | 3.2 | 4.8 | 0.00 | 0.00 | 0.00 | 67 | 1021.5 |
| 20260507175006 | 16 | 171 | 3.2 | 4.8 | 0.00 | 0.00 | 0.00 | 67 | 1021.5 |
| 20260507174008 | 16 | 204 | 3.2 | 4.8 | 0.00 | 0.00 | 0.00 | 67 | 1021.6 |
| 20260507173008 | 16 | 109 | 3.2 | 4.8 | 0.00 | 0.00 | 0.00 | 67 | 1021.7 |
| 20260507172007 | 15 | 228 | 3.2 | 4.8 | 0.00 | 0.00 | 0.00 | 68 | 1021.7 |
| 20260507171006 | 15 | 226 | 3.2 | 6.4 | 0.00 | 0.00 | 0.00 | 70 | 1021.7 |
| 20260507170010 | 13 | 281 | 3.2 | 6.4 | 0.00 | 0.00 | 0.00 | 72 | 1021.7 |
| 20260507165006 | 13 | 299 | 3.2 | 4.8 | 0.00 | 0.00 | 0.00 | 72 | 1021.7 |
| 20260507164009 | 13 | 264 | 1.6 | 3.2 | 0.00 | 0.00 | 0.00 | 73 | 1021.7 |
| 20260507163007 | 13 | 303 | 3.2 | 4.8 | 0.00 | 0.00 | 0.00 | 72 | 1021.7 |
| 20260507162008 | 12 | 233 | 3.2 | 6.4 | 0.00 | 0.00 | 0.00 | 74 | 1021.8 |
| 20260507161008 | 12 | 212 | 1.6 | 3.2 | 0.00 | 0.00 | 0.00 | 77 | 1021.9 |
| 20260507160012 | 12 | 287 | 1.6 | 3.2 | 0.00 | 0.00 | 0.00 | 79 | 1021.9 |
| 20260507155010 | 11 | 212 | 1.6 | 3.2 | 0.00 | 0.00 | 0.00 | 79 | 1021.9 |
| 20260507154010 | 11 | 348 | 1.6 | 4.8 | 0.00 | 0.00 | 0.00 | 80 | 1021.9 |
| 20260507153007 | 11 | 340 | 1.6 | 4.8 | 0.00 | 0.00 | 0.00 | 79 | 1021.9 |
| 20260507152009 | 11 | 0.0 | 0.0 | 0.00 | 0.00 | 0.00 | 81 | 1021.8 | |
| 20260507151011 | 11 | 113 | 0.0 | 1.6 | 0.00 | 0.00 | 0.00 | 81 | 1021.8 |
| 20260507150006 | 11 | 125 | 0.0 | 3.2 | 0.00 | 0.00 | 0.00 | 80 | 1021.8 |
| 20260507145008 | 11 | 266 | 1.6 | 4.8 | 0.00 | 0.00 | 0.00 | 80 | 1021.8 |
| 20260507144006 | 10 | 169 | 1.6 | 4.8 | 0.00 | 0.00 | 0.00 | 82 | 1021.8 |
| 20260507143007 | 10 | 205 | 1.6 | 4.8 | 0.00 | 0.00 | 0.00 | 82 | 1021.7 |
| 20260507142008 | 10 | 259 | 0.0 | 1.6 | 0.00 | 0.00 | 0.00 | 83 | 1021.7 |
| 20260507141014 | 10 | 248 | 1.6 | 3.2 | 0.00 | 0.00 | 0.00 | 83 | 1021.7 |
| 20260507140007 | 10 | 297 | 1.6 | 4.8 | 0.00 | 0.00 | 0.00 | 84 | 1021.6 |
| 20260507135013 | 10 | 300 | 1.6 | 3.2 | 0.00 | 0.00 | 0.00 | 84 | 1021.5 |
| 20260507134008 | 10 | 264 | 1.6 | 4.8 | 0.00 | 0.00 | 0.00 | 85 | 1021.4 |
| 20260507133007 | 10 | 205 | 1.6 | 4.8 | 0.00 | 0.00 | 0.00 | 85 | 1021.4 |
| 20260507132009 | 10 | 185 | 1.6 | 3.2 | 0.00 | 0.00 | 0.00 | 86 | 1021.3 |
| 20260507131009 | 10 | 0.0 | 0.0 | 0.00 | 0.00 | 0.00 | 86 | 1021.3 | |
| 20260507130009 | 10 | 0.0 | 0.0 | 0.00 | 0.00 | 0.00 | 85 | 1021.3 | |
| 20260507125007 | 10 | 248 | 0.0 | 3.2 | 0.00 | 0.00 | 0.00 | 85 | 1021.3 |
| 20260507124008 | 10 | 0.0 | 0.0 | 0.00 | 0.00 | 0.00 | 85 | 1021.3 | |
| 20260507123007 | 10 | 0.0 | 0.0 | 0.00 | 0.00 | 0.00 | 85 | 1021.3 | |
| 20260507122007 | 10 | 169 | 0.0 | 1.6 | 0.00 | 0.00 | 0.00 | 85 | 1021.4 |
| 20260507121007 | 10 | 180 | 0.0 | 3.2 | 0.00 | 0.00 | 0.00 | 86 | 1021.5 |
| 20260507120008 | 10 | 225 | 0.0 | 3.2 | 0.00 | 0.00 | 0.00 | 86 | 1021.5 |
| 20260507115006 | 10 | 225 | 0.0 | 3.2 | 0.00 | 0.00 | 0.00 | 85 | 1021.6 |
| 20260507114006 | 10 | 0.0 | 0.0 | 0.00 | 0.00 | 0.00 | 86 | 1021.7 | |
| 20260507113007 | 10 | 0.0 | 0.0 | 0.00 | 0.00 | 0.00 | 86 | 1021.6 | |
| 20260507112006 | 10 | 0.0 | 0.0 | 0.00 | 0.00 | 0.00 | 85 | 1021.6 | |
| 20260507111008 | 10 | 0.0 | 0.0 | 0.00 | 0.00 | 0.00 | 85 | 1021.7 | |
| 20260507110009 | 10 | 0.0 | 0.0 | 0.00 | 0.00 | 0.00 | 85 | 1021.7 | |
| 20260507105006 | 10 | 0.0 | 0.0 | 0.00 | 0.00 | 0.00 | 85 | 1021.7 | |
| 20260507104008 | 11 | 277 | 1.6 | 3.2 | 0.00 | 0.00 | 0.00 | 85 | 1021.8 |
| 20260507103007 | 11 | 270 | 0.0 | 3.2 | 0.00 | 0.00 | 0.00 | 85 | 1022.0 |
| 20260507102009 | 11 | 0.0 | 0.0 | 0.00 | 0.00 | 0.00 | 85 | 1022.0 | |
| 20260507101008 | 11 | 10 | 0.0 | 3.2 | 0.00 | 0.00 | 0.00 | 84 | 1022.1 |
| 20260507100006 | 11 | 136 | 0.0 | 4.8 | 0.00 | 0.00 | 0.00 | 84 | 1022.1 |
| 20260507095008 | 11 | 270 | 0.0 | 3.2 | 0.00 | 0.00 | 0.00 | 84 | 1022.1 |
| 20260507094009 | 11 | 0.0 | 0.0 | 0.00 | 0.00 | 0.00 | 84 | 1022.1 | |
| 20260507093009 | 11 | 0.0 | 0.0 | 0.00 | 0.00 | 0.00 | 84 | 1022.2 | |
| 20260507092007 | 11 | 0.0 | 0.0 | 0.00 | 0.00 | 0.00 | 84 | 1022.3 | |
| 20260507091007 | 11 | 0.0 | 0.0 | 0.00 | 0.00 | 0.00 | 83 | 1022.4 | |
| 20260507090007 | 11 | 191 | 1.6 | 3.2 | 0.00 | 0.00 | 0.00 | 83 | 1022.5 |
| 20260507085010 | 11 | 314 | 1.6 | 3.2 | 0.00 | 0.00 | 0.00 | 83 | 1022.4 |
| 20260507084009 | 11 | 0.0 | 0.0 | 0.00 | 0.00 | 0.00 | 84 | 1022.4 | |
| 20260507083008 | 11 | 0.0 | 0.0 | 0.00 | 0.00 | 0.00 | 84 | 1022.4 | |
| 20260507082008 | 11 | 0.0 | 0.0 | 0.00 | 0.00 | 0.00 | 85 | 1022.4 | |
| 20260507081006 | 11 | 248 | 0.0 | 3.2 | 0.00 | 0.00 | 0.00 | 85 | 1022.4 |
| 20260507080017 | 11 | 0.0 | 0.0 | 0.00 | 0.00 | 0.00 | 86 | 1022.4 | |
| 20260507075011 | 11 | 0.0 | 0.0 | 0.00 | 0.00 | 0.00 | 87 | 1022.4 | |
| 20260507074009 | 11 | 0.0 | 0.0 | 0.00 | 0.00 | 0.00 | 88 | 1022.4 | |
| 20260507073009 | 11 | 0.0 | 0.0 | 0.00 | 0.00 | 0.00 | 88 | 1022.4 | |
| 20260507072009 | 11 | 16 | 0.0 | 1.6 | 0.00 | 0.00 | 0.00 | 89 | 1022.4 |
| 20260507071009 | 11 | 270 | 0.0 | 1.6 | 0.00 | 0.00 | 0.00 | 89 | 1022.3 |
| 20260507070013 | 11 | 349 | 0.0 | 4.8 | 0.00 | 0.00 | 0.00 | 89 | 1022.3 |
| 20260507065009 | 11 | 23 | 1.6 | 3.2 | 0.00 | 0.00 | 0.00 | 89 | 1022.2 |
| 20260507064008 | 11 | 0.0 | 0.0 | 0.00 | 0.00 | 0.00 | 89 | 1022.3 | |
| 20260507063009 | 11 | 0.0 | 0.0 | 0.00 | 0.00 | 0.00 | 89 | 1022.3 | |
| 20260507062007 | 11 | 0.0 | 0.0 | 0.00 | 0.00 | 0.00 | 90 | 1022.3 | |
| 20260507061009 | 11 | 289 | 1.6 | 3.2 | 0.00 | 0.00 | 0.00 | 91 | 1022.4 |
| 20260507060008 | 11 | 289 | 1.6 | 3.2 | 0.00 | 0.00 | 0.00 | 92 | 1022.4 |
| 20260507055008 | 11 | 308 | 1.6 | 4.8 | 0.00 | 0.00 | 0.00 | 92 | 1022.4 |
| 20260507054007 | 11 | 327 | 1.6 | 6.4 | 0.00 | 0.00 | 0.00 | 92 | 1022.3 |
| 20260507053012 | 11 | 303 | 1.6 | 4.8 | 0.00 | 0.00 | 0.00 | 91 | 1022.2 |
| 20260507052008 | 11 | 113 | 0.0 | 3.2 | 0.00 | 0.00 | 0.00 | 89 | 1022.2 |
| 20260507051007 | 11 | 0.0 | 0.0 | 0.00 | 0.00 | 0.00 | 87 | 1022.2 | |
| 20260507050013 | 12 | 0.0 | 0.0 | 0.00 | 0.00 | 0.00 | 86 | 1022.3 | |
| 20260507045006 | 12 | 0.0 | 0.0 | 0.00 | 0.00 | 0.00 | 85 | 1022.2 | |
| 20260507044008 | 13 | 323 | 0.0 | 3.2 | 0.00 | 0.00 | 0.00 | 83 | 1022.2 |
| 20260507043007 | 13 | 293 | 0.0 | 3.2 | 0.00 | 0.00 | 0.00 | 83 | 1022.1 |
| 20260507042008 | 13 | 248 | 0.0 | 3.2 | 0.00 | 0.00 | 0.00 | 82 | 1022.0 |
| 20260507041009 | 14 | 38 | 1.6 | 6.4 | 0.00 | 0.00 | 0.00 | 82 | 1022.0 |
| 20260507040008 | 14 | 349 | 1.6 | 4.8 | 0.00 | 0.00 | 0.00 | 82 | 1021.8 |
| 20260507035006 | 14 | 223 | 1.6 | 3.2 | 0.00 | 0.00 | 0.00 | 80 | 1021.7 |
| 20260507034009 | 15 | 254 | 3.2 | 4.8 | 0.00 | 0.00 | 0.00 | 81 | 1021.6 |
| 20260507033007 | 15 | 0.0 | 0.0 | 0.00 | 0.00 | 0.00 | 81 | 1021.4 | |
| 20260507032008 | 15 | 0.0 | 0.0 | 0.00 | 0.00 | 0.00 | 82 | 1021.3 | |
| 20260507031008 | 15 | 0.0 | 0.0 | 0.00 | 0.00 | 0.00 | 81 | 1021.2 | |
| 20260507030007 | 16 | 318 | 1.6 | 6.4 | 0.00 | 0.00 | 0.00 | 80 | 1021.1 |
| 20260507025007 | 16 | 81 | 3.2 | 6.4 | 0.00 | 0.00 | 0.00 | 79 | 1020.9 |